Estación Meteorológica Peña el Pijo (Robertgarden) [ 12/11/19 23:05:22 CET ]

Fecha Hora Presion(HPa) Temp (°C) Humedad % Rocio (°C) Viento ( m/s) Direccion Lluvia 1Hora(mm) Lluvia 24H(mm) LLuvia Total(mm)
2019-Aug-01 01:01:47 1009.400 17.5 56 8.6         344.18
2019-Aug-01 02:01:36 1009.300 15.1 61 7.6         344.18
2019-Aug-01 03:01:41 1009.000 13.8 65 7.3         344.18
2019-Aug-01 04:01:43 1009.000 13.2 66 7.0         344.18
2019-Aug-01 05:06:11 1008.900 12.4 68 6.6         344.18
2019-Aug-01 06:02:04 1008.900 11.9 70 6.6         344.18
2019-Aug-01 07:01:47 1008.700 11.8 71 6.7         344.18
2019-Aug-01 08:02:01 1008.600 12.3 73 7.6         344.18
2019-Aug-01 09:01:46 1008.700 17.9 62 10.5         344.18
2019-Aug-01 10:01:57 1008.700 24.1 48 12.4         344.18
2019-Aug-01 11:01:43 1008.300 28.2 44 14.7         344.18
2019-Aug-01 12:01:51 1008.300 30.3 37 13.9         344.18
2019-Aug-01 13:01:53 1008.100 32.1 33 13.7         344.18
2019-Aug-01 14:01:46 1007.800 35.4 29 14.6         344.18
2019-Aug-01 15:01:34 1007.500 35.5 28 14.1         344.18
2019-Aug-01 16:01:53 1007.000 36.9 27 14.6         344.18
2019-Aug-01 17:02:03 1006.800 34.7 28 13.4         344.18
2019-Aug-01 18:01:51 1006.700 32.2 33 13.8         344.18
2019-Aug-01 19:01:46 1006.500 33.0 32 14.1         344.18
2019-Aug-01 20:01:58 1006.800 32.8 31 13.5         344.18
2019-Aug-01 21:01:48 1007.800 28.8 39 13.5         344.18
2019-Aug-01 22:01:37 1008.300 25.2 46 12.7         344.18
2019-Aug-01 23:01:53 1009.500 22.1 55 12.6         344.18

Temperatura Máxima:36°    Temperatura Mínima:11°
Presión Máxima:1009.500 Hpa    Presión Mínima:1006.500 Hpa


Volver